| Date | Time | Temp. (oF) | Dew Point (oF) | Rel. Hum. (%) | Press. (in.) | Wind Dir. (deg.) | Wind Speed (mph) | Hourly Rainfall (i n.) |
|
|---|---|---|---|---|---|---|---|---|---|
| 1 | 09/25 | 24:00 | 63 | 58 | 84 | 30.17 | 110 | 2 | 0.00 |
| 2 | 09/24 | 23:00 | 63 | 57 | 83 | 30.17 | 110 | 0 | 0.00 |
| 3 | 09/24 | 22:00 | 64 | 58 | 81 | 30.17 | 110 | 0 | 0.00 |
| 4 | 09/24 | 21:00 | 65 | 57 | 77 | 30.18 | 110 | 0 | 0.00 |
| 5 | 09/24 | 20:00 | 67 | 58 | 75 | 30.18 | 110 | 1 | 0.00 |
| 6 | 09/24 | 19:00 | 69 | 58 | 69 | 30.18 | 110 | 1 | 0.00 |
| 7 | 09/24 | 18:00 | 72 | 59 | 65 | 30.19 | 130 | 2 | 0.00 |
| 8 | 09/24 | 17:00 | 74 | 58 | 59 | 30.18 | 170 | 6 | 0.00 |
| 9 | 09/24 | 16:00 | 75 | 54 | 49 | 30.16 | 150 | 6 | 0.00 |
| 10 | 09/24 | 15:00 | 76 | 56 | 52 | 30.14 | 130 | 4 | 0.00 |
| 11 | 09/24 | 14:00 | 74 | 56 | 54 | 30.13 | 130 | 7 | 0.00 |
| 12 | 09/24 | 13:00 | 73 | 57 | 58 | 30.15 | 120 | 4 | 0.00 |
| 13 | 09/24 | 12:00 | 69 | 57 | 67 | 30.16 | 290 | 2 | 0.00 |
| 14 | 09/24 | 11:00 | 65 | 56 | 75 | 30.17 | 110 | 6 | 0.00 |
| 15 | 09/24 | 10:00 | 59 | 53 | 81 | 30.17 | 130 | 4 | 0.00 |
| 16 | 09/24 | 09:00 | 56 | 52 | 87 | 30.16 | 170 | 0 | 0.00 |
| 17 | 09/24 | 08:00 | 53 | 49 | 87 | 30.16 | 170 | 0 | 0.00 |
| 18 | 09/24 | 07:00 | 52 | 47 | 86 | 30.14 | 170 | 0 | 0.00 |
| 19 | 09/24 | 06:00 | 53 | 48 | 85 | 30.14 | 170 | 0 | 0.00 |
| 20 | 09/24 | 05:00 | 54 | 49 | 84 | 30.14 | 170 | 0 | 0.00 |
| 21 | 09/24 | 04:00 | 55 | 49 | 82 | 30.15 | 170 | 0 | 0.00 |
| 22 | 09/24 | 03:00 | 57 | 50 | 78 | 30.16 | 170 | 0 | 0.00 |
| 23 | 09/24 | 02:00 | 59 | 49 | 71 | 30.16 | 170 | 0 | 0.00 |
| 24 | 09/24 | 01:00 | 60 | 49 | 69 | 30.17 | 150 | 0 | 0.00 |